Time;durP1;ratioP1;P1;durP2;ratioP2;P2;SDS_P1;SDS_P2;PMS_P1;PMS_P2;Temp;Humidity;BMP_temperature;BMP_pressure;BME280_temperature;BME280_humidity;BME280_pressure;Samples;Min_cycle;Max_cycle;Signal;HPM_P1;HPM_P2
2021/06/01 00:01:19;29356.00;0.10;51.47;0.00;0.00;0.62;;;;;16.80;1.00;;;;;;2265438;61;1044;-85
2021/06/01 00:03:45;0.00;0.00;0.62;0.00;0.00;0.62;;;;;16.80;1.00;;;;;;2261968;61;1361;-85
2021/06/01 00:06:12;24766.00;0.08;43.52;0.00;0.00;0.62;;;;;17.00;1.00;;;;;;2265386;61;1994;-84
2021/06/01 00:08:39;0.00;0.00;0.62;0.00;0.00;0.62;;;;;17.20;1.00;;;;;;2272419;61;957;-84
2021/06/01 00:11:07;140864.00;0.47;244.06;0.00;0.00;0.62;;;;;17.00;1.00;;;;;;2261923;61;1008;-84
2021/06/01 00:13:34;0.00;0.00;0.62;0.00;0.00;0.62;;;;;17.10;1.00;;;;;;2262106;61;1430;-84
2021/06/01 00:16:01;0.00;0.00;0.62;0.00;0.00;0.62;;;;;17.00;1.00;;;;;;2268672;61;1029;-85
2021/06/01 00:18:27;0.00;0.00;0.62;0.00;0.00;0.62;;;;;16.70;1.00;;;;;;2265354;61;1020;-84
2021/06/01 00:20:54;0.00;0.00;0.62;0.00;0.00;0.62;;;;;16.70;1.00;;;;;;2265334;61;1061;-83
2021/06/01 00:23:20;0.00;0.00;0.62;0.00;0.00;0.62;;;;;16.60;1.00;;;;;;2272329;61;1420;-84
2021/06/01 00:25:48;0.00;0.00;0.62;0.00;0.00;0.62;;;;;16.30;1.00;;;;;;2272399;61;1998;-85
2021/06/01 00:28:16;37389.00;0.12;65.37;0.00;0.00;0.62;;;;;16.30;1.00;;;;;;2265016;61;1041;-85
2021/06/01 00:30:43;2970.00;0.01;5.77;0.00;0.00;0.62;;;;;16.00;1.00;;;;;;2261514;61;1077;-86
2021/06/01 00:33:12;0.00;0.00;0.62;0.00;0.00;0.62;;;;;16.40;1.00;;;;;;2261704;61;1334;-86
2021/06/01 00:35:39;0.00;0.00;0.62;0.00;0.00;0.62;;;;;16.20;1.00;;;;;;2265236;61;994;-85
2021/06/01 00:38:06;91623.00;0.31;159.11;0.00;0.00;0.62;;;;;16.20;1.00;;;;;;2272375;61;975;-85
2021/06/01 00:40:34;49206.00;0.16;85.81;0.00;0.00;0.62;;;;;16.20;1.00;;;;;;2261802;61;933;-86
2021/06/01 00:43:00;9572.00;0.03;17.21;0.00;0.00;0.62;;;;;16.20;1.00;;;;;;2263548;61;1403;-86
2021/06/01 00:45:28;0.00;0.00;0.62;0.00;0.00;0.62;;;;;16.00;1.00;;;;;;2256728;61;1997;-85
2021/06/01 00:47:55;0.00;0.00;0.62;0.00;0.00;0.62;;;;;16.20;1.00;;;;;;2253558;61;1126;-86
2021/06/01 00:50:24;60538.00;0.20;105.41;0.00;0.00;0.62;;;;;16.10;1.00;;;;;;2263480;61;1113;-86
2021/06/01 00:52:51;0.00;0.00;0.62;0.00;0.00;0.62;;;;;15.80;1.00;;;;;;2256393;61;1297;-85
2021/06/01 00:55:18;0.00;0.00;0.62;0.00;0.00;0.62;;;;;15.80;1.00;;;;;;2256443;61;1284;-86
2021/06/01 00:57:45;0.00;0.00;0.62;0.00;0.00;0.62;;;;;16.00;1.00;;;;;;2262821;61;966;-86
2021/06/01 01:00:26;0.00;0.00;0.62;0.00;0.00;0.62;;;;;15.60;1.00;;;;;;2257786;61;1152;-86
2021/06/01 01:02:54;45205.00;0.15;78.89;0.00;0.00;0.62;;;;;15.80;1.00;;;;;;2262841;61;1260;-85
2021/06/01 01:05:23;0.00;0.00;0.62;0.00;0.00;0.62;;;;;15.70;1.00;;;;;;2253103;61;2002;-86
2021/06/01 01:08:05;0.00;0.00;0.62;0.00;0.00;0.62;;;;;15.90;1.00;;;;;;2263127;61;1075;-85
2021/06/01 01:10:36;0.00;0.00;0.62;0.00;0.00;0.62;;;;;15.90;1.00;;;;;;2255828;61;991;-86
2021/06/01 01:13:06;134367.00;0.45;232.86;26427.00;0.09;46.40;;;;;16.20;1.00;;;;;;2255770;61;1409;-86
2021/06/01 01:15:35;57470.00;0.19;100.10;0.00;0.00;0.62;;;;;16.10;1.00;;;;;;2252438;61;1001;-85
2021/06/01 01:18:08;38220.00;0.13;66.81;0.00;0.00;0.62;;;;;15.80;1.00;;;;;;2255687;61;1016;-86
2021/06/01 01:20:39;76846.00;0.26;133.59;0.00;0.00;0.62;;;;;15.30;1.00;;;;;;2255681;61;1566;-85
2021/06/01 01:23:12;0.00;0.00;0.62;0.00;0.00;0.62;;;;;15.10;1.00;;;;;;2248995;61;1355;-87
2021/06/01 01:25:46;139254.00;0.46;241.28;28371.00;0.09;49.76;;;;;15.00;1.00;;;;;;2249107;61;1923;-86
2021/06/01 01:28:28;16097.00;0.05;28.51;0.00;0.00;0.62;;;;;14.80;1.00;;;;;;2262426;61;967;-86
2021/06/01 01:31:02;131468.00;0.44;227.86;0.00;0.00;0.62;;;;;14.70;1.00;;;;;;2272289;61;999;-85
2021/06/01 01:33:34;24915.00;0.08;43.78;0.00;0.00;0.62;;;;;14.50;1.00;;;;;;2272278;61;1348;-86
2021/06/01 01:36:03;0.00;0.00;0.62;0.00;0.00;0.62;;;;;14.20;1.00;;;;;;2265169;61;978;-85
2021/06/01 01:38:31;0.00;0.00;0.62;0.00;0.00;0.62;;;;;14.10;1.00;;;;;;2265169;61;987;-86
2021/06/01 01:41:04;0.00;0.00;0.62;0.00;0.00;0.62;;;;;14.20;1.00;;;;;;2259654;61;1142;-86
2021/06/01 01:43:33;240723.00;0.80;415.99;34798.00;0.12;60.89;;;;;14.00;1.00;;;;;;2249761;61;1307;-85
2021/06/01 01:46:06;0.00;0.00;0.62;0.00;0.00;0.62;;;;;14.20;1.00;;;;;;2249679;61;1926;-86
2021/06/01 01:51:20;46093.00;0.15;80.43;0.00;0.00;0.62;;;;;14.00;1.00;;;;;;2259344;61;670;-86
2021/06/01 01:53:52;0.00;0.00;0.62;0.00;0.00;0.62;;;;;14.00;1.00;;;;;;2259504;61;1444;-86
2021/06/01 01:56:20;56892.00;0.19;99.10;0.00;0.00;0.62;;;;;13.90;1.00;;;;;;2247663;61;1040;-85
2021/06/01 01:58:49;269396.00;0.90;465.31;119665.00;0.40;207.50;;;;;13.60;1.00;;;;;;2252430;61;1082;-86
2021/06/01 02:01:16;0.00;0.00;0.62;0.00;0.00;0.62;;;;;13.70;1.00;;;;;;2259272;61;1090;-86
2021/06/01 02:03:44;0.00;0.00;0.62;0.00;0.00;0.62;;;;;13.90;1.00;;;;;;2246956;61;1410;-86
2021/06/01 02:06:12;0.00;0.00;0.62;0.00;0.00;0.62;;;;;13.50;1.00;;;;;;2243966;61;2007;-85
2021/06/01 02:08:40;0.00;0.00;0.62;0.00;0.00;0.62;;;;;13.60;1.00;;;;;;2247345;61;1141;-86
2021/06/01 02:11:07;12989.00;0.04;23.13;0.00;0.00;0.62;;;;;13.90;1.00;;;;;;2244924;61;989;-86
2021/06/01 02:13:41;0.00;0.00;0.62;0.00;0.00;0.62;;;;;14.00;1.00;;;;;;2250112;61;1302;-89
2021/06/01 02:16:08;167551.00;0.56;290.05;18188.00;0.06;32.13;;;;;14.40;1.00;;;;;;2250439;61;978;-88
2021/06/01 02:18:34;43227.00;0.14;75.47;0.00;0.00;0.62;;;;;14.40;1.00;;;;;;2256908;61;1029;-88
2021/06/01 02:21:05;0.00;0.00;0.62;0.00;0.00;0.62;;;;;14.80;1.00;;;;;;2250562;61;1055;-89
2021/06/01 02:23:49;135934.00;0.45;235.56;0.00;0.00;0.62;;;;;14.90;1.00;;;;;;2256875;61;1417;-89
2021/06/01 02:26:38;0.00;0.00;0.62;0.00;0.00;0.62;;;;;14.60;1.00;;;;;;2257624;61;1927;-86
2021/06/01 02:29:10;238677.00;0.80;412.48;69734.00;0.23;121.30;;;;;14.90;1.00;;;;;;2250408;61;950;-88
2021/06/01 02:31:42;313195.00;1.04;540.60;76877.00;0.26;133.64;;;;;14.40;1.00;;;;;;2253623;61;973;-88
2021/06/01 02:34:12;294513.00;0.98;508.49;67572.00;0.23;117.56;;;;;14.00;1.00;;;;;;2260053;61;1407;-87
2021/06/01 02:36:42;180334.00;0.60;312.06;71332.00;0.24;124.06;;;;;13.70;1.00;;;;;;2253586;61;1031;-87
2021/06/01 02:39:10;197605.00;0.66;341.80;50451.00;0.17;87.97;;;;;13.50;1.00;;;;;;2267065;61;1020;-89
2021/06/01 02:41:36;174815.00;0.58;302.56;62965.00;0.21;109.60;;;;;13.40;1.00;;;;;;2272768;61;1018;-88
2021/06/01 02:44:04;55153.00;0.18;96.10;0.00;0.00;0.62;;;;;13.30;1.00;;;;;;2262157;61;1413;-88
2021/06/01 02:46:31;170947.00;0.57;295.90;60697.00;0.20;105.68;;;;;13.30;1.00;;;;;;2272745;61;1986;-89
2021/06/01 02:48:59;383433.00;1.28;661.33;158118.00;0.53;273.80;;;;;13.50;1.00;;;;;;2265417;61;1025;-89
2021/06/01 02:51:26;165857.00;0.55;287.13;76613.00;0.26;133.19;;;;;13.60;1.00;;;;;;2272782;61;923;-88
2021/06/01 02:53:55;254838.00;0.85;440.27;73843.00;0.25;128.40;;;;;13.50;1.00;;;;;;2272662;61;1442;-87
2021/06/01 02:56:23;167411.00;0.56;289.81;66912.00;0.22;116.42;;;;;13.20;1.00;;;;;;2265598;61;1021;-86
2021/06/01 02:58:51;147435.00;0.49;255.39;63189.00;0.21;109.99;;;;;13.00;1.00;;;;;;2271569;61;926;-87
2021/06/01 03:01:20;167985.00;0.56;290.80;68344.00;0.23;118.90;;;;;13.60;1.00;;;;;;2265622;61;1006;-88
2021/06/01 03:03:48;167058.00;0.56;289.20;73189.00;0.24;127.27;;;;;13.30;1.00;;;;;;2262202;61;1439;-87
2021/06/01 03:06:16;155968.00;0.52;270.09;71756.00;0.24;124.79;;;;;13.60;1.00;;;;;;2272401;61;1915;-89
2021/06/01 03:08:42;230122.00;0.77;397.76;74852.00;0.25;130.14;;;;;14.00;1.00;;;;;;2272629;61;929;-86
2021/06/01 03:11:13;167914.00;0.56;290.67;71675.00;0.24;124.65;;;;;13.60;1.00;;;;;;2265574;61;1012;-87
2021/06/01 03:13:39;251518.00;0.84;434.56;75742.00;0.25;131.68;;;;;14.00;1.00;;;;;;2262268;61;1439;-87
2021/06/01 03:16:06;372603.00;1.24;642.71;77979.00;0.26;135.55;;;;;14.60;1.00;;;;;;2264076;61;951;-87
2021/06/01 03:18:32;436308.00;1.45;752.23;105159.00;0.35;182.48;;;;;14.80;1.00;;;;;;2257492;61;954;-86
2021/06/01 03:20:59;171850.00;0.57;297.45;73498.00;0.24;127.80;;;;;14.70;1.00;;;;;;2260610;61;929;-87
2021/06/01 03:23:27;221591.00;0.74;383.08;68814.00;0.23;119.71;;;;;15.00;1.00;;;;;;2257344;61;1402;-88
2021/06/01 03:25:53;167645.00;0.56;290.21;67206.00;0.22;116.93;;;;;15.10;1.00;;;;;;2257411;61;1987;-88
2021/06/01 03:28:22;344213.00;1.15;593.91;71265.00;0.24;123.95;;;;;15.20;1.00;;;;;;2264083;61;1005;-87
2021/06/01 03:30:50;230460.00;0.77;398.34;70859.00;0.24;123.24;;;;;15.30;1.00;;;;;;2260671;61;1016;-87
2021/06/01 03:33:17;303087.00;1.01;523.23;67124.00;0.22;116.79;;;;;15.50;1.00;;;;;;2258587;61;1425;-87
2021/06/01 03:35:44;364813.00;1.22;629.32;75314.00;0.25;130.94;;;;;15.00;1.00;;;;;;2262212;61;980;-87
2021/06/01 03:38:12;299156.00;1.00;516.47;68365.00;0.23;118.94;;;;;14.80;1.00;;;;;;2265540;61;1006;-87
2021/06/01 03:40:38;554380.00;1.85;955.51;131540.00;0.44;227.98;;;;;15.00;1.00;;;;;;2262170;61;963;-86
2021/06/01 03:43:05;1065190.00;3.55;1848.28;279001.00;0.93;481.82;;;;;13.80;1.00;;;;;;2259973;61;1439;-86
2021/06/01 03:45:33;229794.00;0.77;397.19;80256.00;0.27;139.48;;;;;14.00;1.00;;;;;;2259983;61;1985;-86
2021/06/01 03:48:00;246551.00;0.82;426.02;66169.00;0.22;115.14;;;;;13.90;1.00;;;;;;2259998;61;1029;-86
2021/06/01 03:50:26;276042.00;0.92;476.73;73491.00;0.24;127.79;;;;;14.10;1.00;;;;;;2260001;61;967;-86
2021/06/01 03:52:53;289596.00;0.97;500.03;81910.00;0.27;142.34;;;;;14.80;1.00;;;;;;2256583;61;1272;-87
2021/06/01 03:55:20;254504.00;0.85;439.70;72570.00;0.24;126.20;;;;;14.40;1.00;;;;;;2259985;61;1064;-86
2021/06/01 03:57:48;397387.00;1.32;685.31;72337.00;0.24;125.80;;;;;14.30;1.00;;;;;;2255849;61;939;-87
2021/06/01 04:00:18;284007.00;0.95;490.43;72713.00;0.24;126.45;;;;;14.60;1.00;;;;;;2250357;61;1022;-87
2021/06/01 04:02:46;316070.00;1.05;545.54;68913.00;0.23;119.88;;;;;13.90;1.00;;;;;;2257265;61;1388;-87
2021/06/01 04:05:13;358790.00;1.20;618.97;87793.00;0.29;152.50;;;;;14.00;1.00;;;;;;2257295;61;1058;-87
2021/06/01 04:07:39;263938.00;0.88;455.92;74309.00;0.25;129.21;;;;;14.40;1.00;;;;;;2260554;61;2021;-87
2021/06/01 04:10:07;205316.00;0.68;355.07;77075.00;0.26;133.98;;;;;14.90;1.00;;;;;;2259854;61;989;-87
2021/06/01 04:12:34;241079.00;0.80;416.61;66585.00;0.22;115.86;;;;;15.40;1.00;;;;;;2256502;61;1462;-87
2021/06/01 04:15:00;194622.00;0.65;336.67;71563.00;0.24;124.46;;;;;15.10;1.00;;;;;;2260487;61;1038;-87
2021/06/01 04:17:27;295422.00;0.98;510.05;70960.00;0.24;123.42;;;;;15.50;1.00;;;;;;2263914;61;1023;-87
2021/06/01 04:19:55;208565.00;0.70;360.67;60752.00;0.20;105.78;;;;;14.50;1.00;;;;;;2257224;61;1102;-87
2021/06/01 04:22:21;366104.00;1.22;631.54;74615.00;0.25;129.73;;;;;15.00;1.00;;;;;;2260474;61;1272;-88
2021/06/01 04:24:47;307658.00;1.03;531.08;107076.00;0.36;185.78;;;;;15.00;1.00;;;;;;2257277;61;1020;-86
2021/06/01 04:27:14;419594.00;1.40;723.49;102957.00;0.34;178.68;;;;;14.40;1.00;;;;;;2261471;61;2014;-87
2021/06/01 04:29:40;407782.00;1.36;703.18;63664.00;0.21;110.81;;;;;14.40;1.00;;;;;;2272386;61;934;-87
2021/06/01 04:32:07;265396.00;0.88;458.43;72907.00;0.24;126.78;;;;;14.40;1.00;;;;;;2262045;61;1080;-87
2021/06/01 04:34:34;220324.00;0.73;380.90;68410.00;0.23;119.01;;;;;14.80;1.00;;;;;;2265290;61;1549;-88
2021/06/01 04:37:02;451564.00;1.51;778.47;74943.00;0.25;130.30;;;;;15.00;1.00;;;;;;2261973;61;1020;-86
2021/06/01 04:39:28;343829.00;1.15;593.25;70910.00;0.24;123.33;;;;;14.90;1.00;;;;;;2272356;61;1122;-87
2021/06/01 04:41:55;461012.00;1.54;794.73;137121.00;0.46;237.61;;;;;15.30;1.00;;;;;;2259812;61;934;-88
2021/06/01 04:44:21;427471.00;1.42;737.04;69451.00;0.23;120.81;;;;;15.30;1.00;;;;;;2259818;61;1368;-87
2021/06/01 04:46:48;273392.00;0.91;472.18;62656.00;0.21;109.07;;;;;15.20;1.00;;;;;;2256457;61;1957;-87
2021/06/01 04:49:14;230844.00;0.77;399.00;67900.00;0.23;118.13;;;;;15.40;1.00;;;;;;2256372;61;1041;-87
2021/06/01 04:51:47;283397.00;0.94;489.38;67205.00;0.22;116.93;;;;;15.40;1.00;;;;;;2256406;61;990;-88
2021/06/01 04:54:16;559455.00;1.86;964.26;73828.00;0.25;128.37;;;;;15.60;1.00;;;;;;2256439;61;1361;-88
2021/06/01 04:56:42;360912.00;1.20;622.62;68740.00;0.23;119.58;;;;;15.50;1.00;;;;;;2256427;61;966;-87
2021/06/01 04:59:08;282133.00;0.94;487.20;70122.00;0.23;121.97;;;;;15.20;1.00;;;;;;2261789;61;1008;-88
2021/06/01 05:01:35;362386.00;1.21;625.15;70618.00;0.24;122.83;;;;;15.10;1.00;;;;;;2265213;61;1134;-87
2021/06/01 05:04:01;428978.00;1.43;739.63;76105.00;0.25;132.31;;;;;14.60;1.00;;;;;;2261815;61;1362;-88
2021/06/01 05:06:27;361930.00;1.21;624.37;68262.00;0.23;118.76;;;;;14.60;1.00;;;;;;2261866;61;2030;-88
2021/06/01 05:08:54;235359.00;0.78;406.77;65166.00;0.22;113.41;;;;;14.70;1.00;;;;;;2261955;61;995;-88
2021/06/01 05:11:22;318945.00;1.06;550.48;69948.00;0.23;121.67;;;;;15.20;1.00;;;;;;2272318;61;983;-86
2021/06/01 05:13:48;292632.00;0.98;505.25;76637.00;0.26;133.23;;;;;15.50;1.00;;;;;;2272219;61;1287;-87
2021/06/01 05:16:15;175358.00;0.58;303.50;68543.00;0.23;119.24;;;;;15.80;1.00;;;;;;2265173;61;966;-88
2021/06/01 05:18:42;219279.00;0.73;379.10;68897.00;0.23;119.85;;;;;16.20;1.00;;;;;;2259710;61;939;-87
2021/06/01 05:21:08;250361.00;0.83;432.57;67170.00;0.22;116.87;;;;;16.10;1.00;;;;;;2255690;61;979;-88
2021/06/01 05:23:35;524174.00;1.75;903.45;69000.00;0.23;120.03;;;;;16.00;1.00;;;;;;2255641;61;1389;-88
2021/06/01 05:31:57;1104198.00;3.68;1917.93;126071.00;0.42;218.55;;;;;15.70;1.00;;;;;;2269729;61;1400;-88
2021/06/01 05:34:25;432479.00;1.44;745.65;0.00;0.00;0.62;;;;;15.30;1.00;;;;;;2268129;61;1351;-87
2021/06/01 05:36:52;435616.00;1.45;751.04;85930.00;0.29;149.28;;;;;15.20;1.00;;;;;;2259616;61;1055;-88
2021/06/01 05:39:18;79827.00;0.27;138.74;0.00;0.00;0.62;;;;;15.50;1.00;;;;;;2249792;61;1122;-86
2021/06/01 05:41:45;1040712.00;3.47;1804.71;371990.00;1.24;641.66;;;;;17.10;1.00;;;;;;2249792;61;1020;-86
2021/06/01 05:44:11;1045658.00;3.49;1813.51;304065.00;1.01;524.91;;;;;19.50;1.00;;;;;;2250112;61;1526;-87
2021/06/01 05:46:37;653031.00;2.18;1125.88;162691.00;0.54;281.68;;;;;21.20;1.00;;;;;;2250541;61;2013;-88
2021/06/01 05:49:05;197957.00;0.66;342.41;31496.00;0.10;55.17;;;;;23.40;1.00;;;;;;2253756;61;978;-87
2021/06/01 05:51:34;394714.00;1.32;680.72;60628.00;0.20;105.56;;;;;24.40;1.00;;;;;;2250489;61;1094;-86
2021/06/01 05:54:02;0.00;0.00;0.62;0.00;0.00;0.62;;;;;25.40;1.00;;;;;;2251629;61;1336;-86
2021/06/01 05:56:28;16972.00;0.06;30.03;0.00;0.00;0.62;;;;;26.20;1.00;;;;;;2265198;61;974;-87
2021/06/01 05:58:54;0.00;0.00;0.62;0.00;0.00;0.62;;;;;26.60;1.00;;;;;;2265148;61;950;-86
2021/06/01 06:01:21;412597.00;1.38;711.46;113061.00;0.38;196.11;;;;;28.10;1.00;;;;;;2265122;61;1278;-87
2021/06/01 06:03:47;18996.00;0.06;33.53;0.00;0.00;0.62;;;;;28.40;1.00;;;;;;2265060;61;1369;-87
2021/06/01 06:06:15;0.00;0.00;0.62;0.00;0.00;0.62;;;;;28.70;1.00;;;;;;2268857;61;1980;-86
2021/06/01 06:08:43;104981.00;0.35;182.17;0.00;0.00;0.62;;;;;29.60;1.00;;;;;;2268786;61;1015;-89
2021/06/01 06:11:09;0.00;0.00;0.62;0.00;0.00;0.62;;;;;29.10;1.00;;;;;;2260306;61;1050;-88
2021/06/01 06:13:36;14398.00;0.05;25.57;0.00;0.00;0.62;;;;;29.50;1.00;;;;;;2248341;61;1377;-89
2021/06/01 06:16:03;308655.00;1.03;532.80;39050.00;0.13;68.24;;;;;30.50;1.00;;;;;;2248403;61;1033;-90
2021/06/01 06:18:37;77431.00;0.26;134.60;0.00;0.00;0.62;;;;;30.60;1.00;;;;;;2248204;61;1118;-89
2021/06/01 06:21:06;842450.00;2.81;1455.26;98633.00;0.33;171.21;;;;;30.00;1.00;;;;;;2238578;62;957;-87
2021/06/01 06:23:40;934552.00;3.12;1616.89;60253.00;0.20;104.91;;;;;28.80;1.00;;;;;;2238498;61;1272;-88
2021/06/01 06:26:06;328600.00;1.10;567.08;37494.00;0.12;65.55;;;;;28.20;1.00;;;;;;2248292;61;2007;-88
2021/06/01 06:28:33;89749.00;0.30;155.87;0.00;0.00;0.62;;;;;28.00;1.00;;;;;;2251054;61;1074;-87
2021/06/01 06:31:00;43194.00;0.14;75.41;0.00;0.00;0.62;;;;;28.70;1.00;;;;;;2255140;61;994;-89
2021/06/01 06:33:27;311692.00;1.04;538.02;132874.00;0.44;230.29;;;;;29.00;1.00;;;;;;2262320;61;1463;-89
2021/06/01 06:35:55;138726.00;0.46;240.37;0.00;0.00;0.62;;;;;30.70;1.00;;;;;;2272741;61;1024;-90
2021/06/01 06:38:22;36912.00;0.12;64.55;0.00;0.00;0.62;;;;;31.20;1.00;;;;;;2262352;61;1042;-88
2021/06/01 06:40:58;113980.00;0.38;197.70;0.00;0.00;0.62;;;;;31.50;1.00;;;;;;2260097;61;946;-87
2021/06/01 06:43:25;106517.00;0.36;184.82;0.00;0.00;0.62;;;;;32.00;1.00;;;;;;2253464;61;1347;-92
2021/06/01 06:45:51;0.00;0.00;0.62;0.00;0.00;0.62;;;;;31.70;1.00;;;;;;2260004;61;1920;-89
2021/06/01 06:48:18;0.00;0.00;0.62;0.00;0.00;0.62;;;;;32.30;1.00;;;;;;2259946;61;959;-89
2021/06/01 06:50:44;23278.00;0.08;40.95;0.00;0.00;0.62;;;;;32.80;1.00;;;;;;2253592;61;1069;-88
2021/06/01 06:53:11;686884.00;2.29;1184.50;161084.00;0.54;278.91;;;;;32.30;1.00;;;;;;2252118;61;1358;-89
2021/06/01 06:55:38;0.00;0.00;0.62;0.00;0.00;0.62;;;;;31.00;1.00;;;;;;2242132;61;1014;-91
2021/06/01 06:58:07;0.00;0.00;0.62;0.00;0.00;0.62;;;;;30.80;1.00;;;;;;2247675;61;1008;-88
2021/06/01 07:00:35;49448.00;0.16;86.23;0.00;0.00;0.62;;;;;32.00;1.00;;;;;;2257531;61;974;-88
2021/06/01 07:03:02;26295.00;0.09;46.17;0.00;0.00;0.62;;;;;32.90;1.00;;;;;;2254239;61;1350;-89
2021/06/01 07:05:28;0.00;0.00;0.62;0.00;0.00;0.62;;;;;34.00;1.00;;;;;;2264121;61;1042;-88
2021/06/01 07:07:55;104969.00;0.35;182.15;30647.00;0.10;53.70;;;;;34.30;1.00;;;;;;2264141;61;1989;-87
2021/06/01 07:10:22;76393.00;0.25;132.81;0.00;0.00;0.62;;;;;34.40;1.00;;;;;;2258137;61;991;-86
2021/06/01 07:12:49;107402.00;0.36;186.35;0.00;0.00;0.62;;;;;34.50;1.00;;;;;;2268626;61;1444;-89
2021/06/01 07:15:36;0.00;0.00;0.62;0.00;0.00;0.62;;;;;33.10;1.00;;;;;;2259979;61;1030;-88
2021/06/01 07:18:03;3192.00;0.01;6.15;0.00;0.00;0.62;;;;;33.20;1.00;;;;;;2260142;61;1037;-88
2021/06/01 07:20:31;62569.00;0.21;108.92;0.00;0.00;0.62;;;;;33.00;1.00;;;;;;2253500;61;1123;-87
2021/06/01 07:22:58;0.00;0.00;0.62;0.00;0.00;0.62;;;;;32.70;1.00;;;;;;2251966;61;1320;-88
2021/06/01 07:25:25;0.00;0.00;0.62;0.00;0.00;0.62;;;;;33.30;1.00;;;;;;2248771;61;1012;-88
2021/06/01 07:27:51;0.00;0.00;0.62;0.00;0.00;0.62;;;;;33.50;1.00;;;;;;2252039;61;2020;-87
2021/06/01 07:30:18;60719.00;0.20;105.72;0.00;0.00;0.62;;;;;33.90;1.00;;;;;;2248744;61;990;-87
2021/06/01 07:32:46;135865.00;0.45;235.44;0.00;0.00;0.62;;;;;32.70;1.00;;;;;;2254238;61;1687;-89
2021/06/01 07:35:13;120285.00;0.40;208.57;54976.00;0.18;95.79;;;;;33.00;1.00;;;;;;2260070;61;1056;-88
2021/06/01 07:37:39;159392.00;0.53;275.99;0.00;0.00;0.62;;;;;33.10;1.00;;;;;;2253427;61;978;-88
2021/06/01 07:40:07;0.00;0.00;0.62;0.00;0.00;0.62;;;;;33.20;1.00;;;;;;2251033;61;1017;-88
2021/06/01 07:42:33;0.00;0.00;0.62;0.00;0.00;0.62;;;;;33.00;1.00;;;;;;2268475;61;1420;-87
2021/06/01 07:45:00;35316.00;0.12;61.78;0.00;0.00;0.62;;;;;34.10;1.00;;;;;;2268505;61;736;-89
2021/06/01 07:47:26;266276.00;0.89;459.94;119981.00;0.40;208.05;;;;;33.60;1.00;;;;;;2261445;61;1926;-88
2021/06/01 07:49:54;0.00;0.00;0.62;0.00;0.00;0.62;;;;;33.60;1.00;;;;;;2268516;61;939;-88
2021/06/01 07:52:20;0.00;0.00;0.62;0.00;0.00;0.62;;;;;33.50;1.00;;;;;;2268474;61;1340;-89
2021/06/01 07:54:47;13031.00;0.04;23.20;0.00;0.00;0.62;;;;;33.90;1.00;;;;;;2261490;61;997;-87
2021/06/01 07:57:13;0.00;0.00;0.62;0.00;0.00;0.62;;;;;34.10;1.00;;;;;;2261421;61;986;-88
2021/06/01 07:59:40;58030.00;0.19;101.07;0.00;0.00;0.62;;;;;33.50;1.00;;;;;;2264668;61;970;-87
2021/06/01 08:02:07;89894.00;0.30;156.12;0.00;0.00;0.62;;;;;33.70;1.00;;;;;;2268401;61;1016;-87
2021/06/01 08:04:35;0.00;0.00;0.62;0.00;0.00;0.62;;;;;32.90;1.00;;;;;;2268384;61;1297;-89
2021/06/01 08:07:06;637051.00;2.12;1098.24;92500.00;0.31;160.62;;;;;32.30;1.00;;;;;;2259701;61;1987;-89
2021/06/01 08:09:32;65707.00;0.22;114.34;0.00;0.00;0.62;;;;;31.60;1.00;;;;;;2259890;61;1095;-89
2021/06/01 08:11:59;0.00;0.00;0.62;0.00;0.00;0.62;;;;;31.90;1.00;;;;;;2259881;61;1034;-90
2021/06/01 09:53:00;;;;;;;;;;;;;;;;;;;;;
2021/06/01 10:29:08;916077.00;3.05;1584.37;0.00;0.00;0.62;;;;;26.00;1.00;;;;;;2278383;61;1112;-91
2021/06/01 12:43:42;579808.00;1.93;999.37;0.00;0.00;0.62;;;;;26.10;1.00;;;;;;2278477;61;1234;-93
2021/06/01 17:38:13;349789.00;1.17;603.50;0.00;0.00;0.62;;;;;25.90;1.00;;;;;;1092202;40;3367;31
2021/06/01 20:19:34;165556.00;0.55;286.61;0.00;0.00;0.62;;;;;22.20;1.00;;;;;;2278155;61;1247;-88
2021/06/01 20:22:02;357089.00;1.19;616.05;0.00;0.00;0.62;;;;;22.10;1.00;;;;;;2276367;61;1577;-87
2021/06/01 20:24:33;431074.00;1.44;743.23;81034.00;0.27;140.82;;;;;22.00;1.00;;;;;;2276408;61;1736;-89
2021/06/01 20:27:00;71772.00;0.24;124.82;0.00;0.00;0.62;;;;;22.00;1.00;;;;;;2272310;61;1160;-88
2021/06/01 20:29:32;383248.00;1.28;661.01;72533.00;0.24;126.14;;;;;22.00;1.00;;;;;;2259260;61;1932;-88
2021/06/01 20:34:46;0.00;0.00;0.62;0.00;0.00;0.62;;;;;21.90;1.00;;;;;;2251215;61;1328;-88
2021/06/01 20:37:13;52917.00;0.18;92.23;0.00;0.00;0.62;;;;;21.80;1.00;;;;;;2251621;61;1220;-88
2021/06/01 20:39:42;247619.00;0.83;427.86;66320.00;0.22;115.40;;;;;21.80;1.00;;;;;;2251548;61;1132;-89
2021/06/01 20:42:09;199420.00;0.66;344.93;74207.00;0.25;129.03;;;;;21.70;1.00;;;;;;2243037;62;1051;-88
2021/06/01 20:44:36;334040.00;1.11;576.43;74133.00;0.25;128.90;;;;;21.70;1.00;;;;;;2243357;62;1345;-88
2021/06/01 20:47:04;260446.00;0.87;449.92;75884.00;0.25;131.93;;;;;21.70;1.00;;;;;;2239360;61;1098;-88
2021/06/01 20:49:33;170487.00;0.57;295.11;78039.00;0.26;135.65;;;;;21.70;1.00;;;;;;2251193;61;1998;-89
2021/06/01 20:52:04;267698.00;0.89;462.39;69733.00;0.23;121.30;;;;;21.60;1.00;;;;;;2251355;61;1140;-89
2021/06/01 20:54:32;362717.00;1.21;625.72;90154.00;0.30;156.57;;;;;21.60;1.00;;;;;;2248156;61;1170;-87
2021/06/01 20:57:01;370015.00;1.23;638.26;80911.00;0.27;140.61;;;;;21.40;1.00;;;;;;2247882;61;1596;-87
2021/06/01 20:59:27;193208.00;0.64;334.23;71598.00;0.24;124.52;;;;;21.20;1.00;;;;;;2249340;61;1113;-87
2021/06/01 21:01:55;167883.00;0.56;290.62;70927.00;0.24;123.36;;;;;20.90;1.00;;;;;;2249417;61;1023;-87
2021/06/01 21:04:22;294604.00;0.98;508.64;74982.00;0.25;130.37;;;;;20.60;1.00;;;;;;2259453;61;1061;-87
2021/06/01 21:06:49;397555.00;1.33;685.60;93106.00;0.31;161.67;;;;;20.50;1.00;;;;;;2264450;61;1333;-87
2021/06/01 21:09:17;379634.00;1.27;654.80;73973.00;0.25;128.63;;;;;20.60;1.00;;;;;;2271983;61;1991;-87
2021/06/01 21:11:44;285690.00;0.95;493.32;76212.00;0.25;132.49;;;;;20.70;1.00;;;;;;2259165;61;1046;-87
2021/06/01 21:14:11;417669.00;1.39;720.18;72475.00;0.24;126.04;;;;;20.60;1.00;;;;;;2258939;61;1136;-87
2021/06/01 21:16:39;364651.00;1.22;629.04;69772.00;0.23;121.37;;;;;20.40;1.00;;;;;;2247359;62;1442;-86
2021/06/01 21:19:05;371238.00;1.24;640.36;105387.00;0.35;182.87;;;;;20.10;1.00;;;;;;2250747;61;1197;-86
2021/06/01 21:21:32;314047.00;1.05;542.07;76845.00;0.26;133.59;;;;;20.00;1.00;;;;;;2251495;61;1109;-86
2021/06/01 21:23:59;202308.00;0.67;349.90;69829.00;0.23;121.46;;;;;20.10;1.00;;;;;;2251403;61;1033;-87
2021/06/01 21:26:26;183646.00;0.61;317.77;73598.00;0.25;127.98;;;;;20.20;1.00;;;;;;2251622;61;1452;-87
2021/06/01 21:28:54;284499.00;0.95;491.27;73856.00;0.25;128.42;;;;;20.40;1.00;;;;;;2252625;61;2009;-87
2021/06/01 21:31:23;214691.00;0.72;371.21;68570.00;0.23;119.29;;;;;20.40;1.00;;;;;;2263004;61;1176;-88
2021/06/01 21:33:59;244003.00;0.81;421.64;80407.00;0.27;139.74;;;;;20.40;1.00;;;;;;2264381;61;1034;-88
2021/06/01 21:36:26;214561.00;0.72;370.98;73642.00;0.25;128.05;;;;;20.40;1.00;;;;;;2271672;61;1481;-87
2021/06/01 21:38:56;348428.00;1.16;601.16;125794.00;0.42;218.08;;;;;20.20;1.00;;;;;;2271923;61;1645;-87
2021/06/01 21:41:23;225778.00;0.75;390.29;71760.00;0.24;124.80;;;;;20.20;1.00;;;;;;2271873;61;1148;-87
2021/06/01 21:43:58;274543.00;0.92;474.16;72509.00;0.24;126.10;;;;;20.00;1.00;;;;;;2271953;61;999;-88
2021/06/01 21:46:26;207072.00;0.69;358.10;70683.00;0.24;122.94;;;;;20.10;1.00;;;;;;2268041;61;1348;-86
2021/06/01 21:48:55;242546.00;0.81;419.13;72278.00;0.24;125.70;;;;;19.70;1.00;;;;;;2271385;61;1990;-87
2021/06/01 21:51:22;175812.00;0.59;304.28;58848.00;0.20;102.49;;;;;19.70;1.00;;;;;;2267754;61;1046;-86
2021/06/01 21:53:48;203346.00;0.68;351.68;69428.00;0.23;120.77;;;;;19.80;1.00;;;;;;2267859;61;1137;-86
2021/06/01 21:56:17;247914.00;0.83;428.36;79358.00;0.26;137.93;;;;;19.50;1.00;;;;;;2271696;61;1514;-86
2021/06/01 21:58:46;359494.00;1.20;620.18;136221.00;0.45;236.06;;;;;19.60;1.00;;;;;;2266879;61;1151;-87
2021/06/01 22:01:14;250758.00;0.84;433.25;69318.00;0.23;120.58;;;;;19.40;1.00;;;;;;2267068;61;1128;-87
2021/06/01 22:03:40;437346.00;1.46;754.02;76542.00;0.26;133.06;;;;;19.50;1.00;;;;;;2260169;61;1196;-87